Terminal Aerodrome Forecast
Issued by NWS

Home | Current Version | Previous Version | Text Only | Print | Product List | Glossary On
Versions: 1 2 3 4 5 6 7 8 9 10 11 12 13 14 15 16 17
000
FTUS43 KLSX 301100
TAFCPS
TAF
KCPS 301137Z 3012/3112 VRB04KT 3SM -SHRA BR SCT015 OVC070
      TEMPO 3013/3017 BKN015
     FM301700 36011KT 5SM -RA OVC015
     FM302100 34014KT P6SM VCSH OVC015=

USA.gov is the U.S. government's official web portal to all federal, state and local government web resources and services.